Time;durP1;ratioP1;P1;durP2;ratioP2;P2;SDS_P1;SDS_P2;PMS_P1;PMS_P2;Temp;Humidity;BMP_temperature;BMP_pressure;BME280_temperature;BME280_humidity;BME280_pressure;Samples;Min_cycle;Max_cycle;Signal;HPM_P1;HPM_P2
2022/01/08 00:00:12;;;;;;;72.00;34.58;;;;;;;-4.13;74.27;102018.73;1783352;80;20932;-74
2022/01/08 00:02:42;;;;;;;83.17;39.30;;;;;;;-4.16;74.25;102018.64;1783381;80;20951;-76
2022/01/08 00:05:10;;;;;;;82.00;39.38;;;;;;;-4.13;74.72;102017.88;1783713;80;20987;-76
2022/01/08 00:07:39;;;;;;;90.95;40.45;;;;;;;-4.10;74.73;102022.64;1783496;80;20959;-76
2022/01/08 00:10:06;;;;;;;88.87;43.78;;;;;;;-4.06;74.65;102023.59;1783913;80;20884;-76
2022/01/08 00:12:33;;;;;;;92.33;42.25;;;;;;;-4.04;74.71;102024.06;1783626;80;21346;-76
2022/01/08 00:15:00;;;;;;;82.60;37.98;;;;;;;-4.01;74.68;102020.70;1783543;80;20932;-76
2022/01/08 00:17:29;;;;;;;76.67;35.52;;;;;;;-4.01;74.71;102019.42;1783536;80;20864;-76
2022/01/08 00:19:56;;;;;;;86.87;38.50;;;;;;;-4.02;74.36;102016.42;1778322;80;21145;-76
2022/01/08 00:22:23;;;;;;;65.78;32.98;;;;;;;-4.09;74.14;102015.42;1768236;81;21402;-77
2022/01/08 00:24:52;;;;;;;59.42;29.42;;;;;;;-4.14;74.43;102021.25;1768256;80;20964;-74
2022/01/08 00:27:21;;;;;;;56.08;26.82;;;;;;;-4.17;74.49;102017.79;1768209;81;20893;-75
2022/01/08 00:29:48;;;;;;;53.92;26.85;;;;;;;-4.20;74.36;102013.03;1768015;80;20971;-76
2022/01/08 00:32:15;;;;;;;50.45;24.98;;;;;;;-4.22;74.33;102010.84;1776925;80;21478;-75
2022/01/08 00:34:43;;;;;;;83.00;37.30;;;;;;;-4.27;74.17;102017.14;1778548;80;20864;-75
2022/01/08 00:37:10;;;;;;;88.03;39.85;;;;;;;-4.34;74.13;102009.27;1778943;79;20884;-74
2022/01/08 00:39:37;;;;;;;63.80;30.08;;;;;;;-4.41;74.25;102009.53;1778788;79;20971;-75
2022/01/08 00:42:04;;;;;;;45.92;23.25;;;;;;;-4.44;74.42;102006.91;1779020;80;20919;-77
2022/01/08 00:44:30;;;;;;;59.45;26.35;;;;;;;-4.43;74.58;102013.75;1738962;82;21120;-77
2022/01/08 00:46:57;;;;;;;58.48;26.20;;;;;;;-4.44;74.30;102005.63;1739217;82;21433;-75
2022/01/08 00:49:25;;;;;;;53.98;26.55;;;;;;;-4.46;74.36;102000.47;1722835;83;20932;-76
2022/01/08 00:51:51;;;;;;;58.40;27.25;;;;;;;-4.50;74.44;102002.91;1709669;84;21462;-76
2022/01/08 00:54:18;;;;;;;49.75;24.30;;;;;;;-4.51;74.82;101996.05;1738994;82;20920;-76
2022/01/08 00:56:45;;;;;;;52.23;25.08;;;;;;;-4.47;74.90;102001.31;1722928;82;21039;-76
2022/01/08 00:59:13;;;;;;;37.55;18.12;;;;;;;-4.50;74.72;102000.36;1738873;82;20842;-75
2022/01/08 01:01:40;;;;;;;39.73;18.12;;;;;;;-4.52;74.51;102003.29;1778916;80;20924;-76
2022/01/08 01:04:07;;;;;;;48.60;21.82;;;;;;;-4.52;74.40;101992.63;1739017;81;21047;-74
2022/01/08 01:06:34;;;;;;;43.55;21.65;;;;;;;-4.49;74.36;101995.67;1739083;82;20905;-74
2022/01/08 01:09:00;;;;;;;38.65;18.48;;;;;;;-4.46;74.50;101999.19;1722761;83;21170;-74
2022/01/08 01:11:29;;;;;;;32.15;16.12;;;;;;;-4.44;74.51;102007.77;1738999;82;20901;-76
2022/01/08 01:13:56;;;;;;;27.82;15.32;;;;;;;-4.44;74.42;101998.81;1778545;79;21466;-75
2022/01/08 01:16:22;;;;;;;29.50;14.83;;;;;;;-4.42;74.29;102000.99;1778435;79;20900;-76
2022/01/08 01:18:49;;;;;;;30.88;12.78;;;;;;;-4.40;74.10;102010.00;1779413;80;20912;-76
2022/01/08 01:21:16;;;;;;;28.30;12.45;;;;;;;-4.41;73.94;102006.97;1779470;80;21086;-75
2022/01/08 01:23:44;;;;;;;28.00;13.18;;;;;;;-4.41;73.83;101994.17;1778613;79;20919;-75
2022/01/08 01:26:17;;;;;;;23.98;11.88;;;;;;;-4.41;73.50;101995.03;1778704;80;21449;-75
2022/01/08 01:28:50;;;;;;;34.75;14.23;;;;;;;-4.43;73.39;101996.69;1777872;80;20966;-74
2022/01/08 01:47:18;;;;;;;38.08;17.30;;;;;;;-4.61;73.01;101998.81;1739272;82;22099;-74
2022/01/08 01:49:47;;;;;;;33.83;16.20;;;;;;;-4.60;73.17;102010.80;1722718;83;20925;-76
2022/01/08 01:52:16;;;;;;;35.08;14.80;;;;;;;-4.58;73.29;102018.07;1739252;82;21363;-73
2022/01/08 01:54:43;;;;;;;28.20;15.03;;;;;;;-4.58;73.19;102014.23;1739077;82;21450;-75
2022/01/08 01:57:12;;;;;;;29.23;15.03;;;;;;;-4.59;73.19;102015.08;1778829;80;20966;-75
2022/01/08 01:59:39;;;;;;;33.40;15.28;;;;;;;-4.61;73.27;102009.05;1778399;80;21136;-74
2022/01/08 02:02:06;;;;;;;32.90;16.45;;;;;;;-4.57;73.52;102017.26;1739193;81;21019;-74
2022/01/08 02:04:35;;;;;;;44.03;17.40;;;;;;;-4.51;73.51;102015.25;1738937;82;20936;-73
2022/01/08 02:07:02;;;;;;;32.42;15.25;;;;;;;-4.50;73.62;102009.31;1708222;84;20906;-74
2022/01/08 02:09:33;;;;;;;33.98;15.68;;;;;;;-4.48;73.55;102004.68;1778500;80;20979;-74
2022/01/08 02:12:02;;;;;;;38.50;19.27;;;;;;;-4.48;73.42;102008.52;1778816;80;21401;-74
2022/01/08 02:14:31;;;;;;;38.90;17.57;;;;;;;-4.47;73.55;102016.67;1738818;81;21474;-76
2022/01/08 02:16:59;;;;;;;40.95;18.75;;;;;;;-4.48;73.44;102015.34;1723144;83;20885;-74
2022/01/08 02:19:26;;;;;;;29.67;15.72;;;;;;;-4.53;73.23;102016.52;1738892;82;20877;-74
2022/01/08 02:21:58;;;;;;;33.05;17.17;;;;;;;-4.58;73.11;102009.11;1769510;80;20876;-73
2022/01/08 02:24:25;;;;;;;40.43;18.92;;;;;;;-4.61;73.11;102011.61;1768365;81;21148;-74
2022/01/08 02:26:52;;;;;;;33.28;17.77;;;;;;;-4.64;73.44;102016.66;1726793;83;20905;-74
2022/01/08 02:29:21;;;;;;;40.78;19.50;;;;;;;-4.64;73.61;102017.52;1768234;81;20892;-75
2022/01/08 02:32:06;;;;;;;43.40;20.00;;;;;;;-4.65;73.46;102018.33;1768639;81;20870;-74
2022/01/08 02:34:35;;;;;;;48.17;22.10;;;;;;;-4.68;73.41;102019.55;1768454;81;20865;-73
2022/01/08 02:37:02;;;;;;;46.92;20.75;;;;;;;-4.69;73.47;102016.55;1768670;81;21128;-74
2022/01/08 02:39:37;;;;;;;43.65;21.73;;;;;;;-4.69;73.50;102023.34;1768402;81;20892;-74
2022/01/08 02:41:59;;;;;;;46.02;19.73;;;;;;;-4.73;73.67;102032.65;1726110;83;20992;-75
2022/01/08 02:44:26;;;;;;;37.88;18.70;;;;;;;-4.76;73.81;102027.85;1768430;81;20936;-73
2022/01/08 02:46:53;;;;;;;42.03;18.48;;;;;;;-4.75;73.83;102029.61;1769990;81;20908;-74
2022/01/08 02:49:25;;;;;;;42.83;20.60;;;;;;;-4.76;73.61;102023.59;1768604;80;21976;-76
2022/01/08 02:51:50;;;;;;;41.75;20.52;;;;;;;-4.79;73.40;102023.53;1726394;83;21043;-74
2022/01/08 02:54:17;;;;;;;43.52;18.48;;;;;;;-4.81;73.68;102025.17;1768333;80;21795;-74
2022/01/08 02:56:46;;;;;;;35.43;17.65;;;;;;;-4.79;73.83;102035.05;1768576;81;20904;-75
2022/01/08 02:59:13;;;;;;;36.58;17.67;;;;;;;-4.77;73.77;102032.53;1726585;83;20964;-76
2022/01/08 03:01:40;;;;;;;43.83;19.30;;;;;;;-4.81;73.58;102028.59;1768470;81;21544;-76
2022/01/08 03:04:07;;;;;;;40.67;18.20;;;;;;;-4.79;73.65;102032.48;1726528;83;20881;-76
2022/01/08 03:06:34;;;;;;;43.30;19.30;;;;;;;-4.77;73.70;102041.48;1768671;81;21030;-74
2022/01/08 03:09:02;;;;;;;39.95;18.00;;;;;;;-4.75;73.71;102039.42;1768248;81;20951;-74
2022/01/08 03:11:29;;;;;;;33.50;16.48;;;;;;;-4.73;73.68;102048.00;1768800;81;20987;-76
2022/01/08 03:13:56;;;;;;;33.05;14.07;;;;;;;-4.71;73.58;102045.46;1768726;81;21558;-76
2022/01/08 03:16:23;;;;;;;28.05;13.70;;;;;;;-4.70;73.44;102043.37;1771197;81;20932;-75
2022/01/08 03:18:50;;;;;;;33.02;16.75;;;;;;;-4.71;73.38;102038.67;1770257;81;20952;-75
2022/01/08 03:21:19;;;;;;;34.40;15.28;;;;;;;-4.69;73.69;102046.37;1769360;80;20861;-74
2022/01/08 03:23:53;;;;;;;31.10;15.85;;;;;;;-4.66;73.82;102048.61;1768862;80;21303;-76
2022/01/08 03:26:21;;;;;;;28.47;15.05;;;;;;;-4.63;73.72;102047.39;1726838;83;21521;-77
2022/01/08 03:28:47;;;;;;;36.08;16.65;;;;;;;-4.62;73.53;102042.74;1769055;81;21195;-77
2022/01/08 03:31:15;;;;;;;29.82;15.03;;;;;;;-4.60;73.36;102046.21;1771817;78;20845;-74
2022/01/08 03:33:42;;;;;;;26.93;14.95;;;;;;;-4.58;73.31;102039.83;1771502;77;20873;-75
2022/01/08 03:36:09;;;;;;;30.80;13.65;;;;;;;-4.57;73.18;102036.87;1772001;79;20980;-74
2022/01/08 03:38:36;;;;;;;28.50;15.25;;;;;;;-4.58;73.46;102043.66;1771609;81;21459;-74
2022/01/08 03:41:03;;;;;;;27.07;13.30;;;;;;;-4.55;73.70;102035.22;1771716;79;20955;-75
2022/01/08 03:43:30;;;;;;;33.38;16.25;;;;;;;-4.53;73.58;102035.71;1730250;80;20949;-74
2022/01/08 03:45:58;;;;;;;32.45;16.17;;;;;;;-4.49;73.76;102035.35;1771758;77;21144;-75
2022/01/08 03:48:32;;;;;;;33.48;14.70;;;;;;;-4.47;73.61;102038.43;1771472;78;21148;-76
2022/01/08 03:50:54;;;;;;;30.48;14.75;;;;;;;-4.46;73.50;102042.70;1769800;81;21247;-75
2022/01/08 03:53:22;;;;;;;34.58;15.72;;;;;;;-4.47;73.37;102040.09;1769982;81;20865;-75
2022/01/08 03:55:49;;;;;;;38.50;19.20;;;;;;;-4.48;73.33;102039.23;1770387;81;20876;-75
2022/01/08 03:58:18;;;;;;;53.02;23.47;;;;;;;-4.46;73.30;102038.01;1728112;83;20881;-74
2022/01/08 04:00:47;;;;;;;50.67;23.18;;;;;;;-4.45;73.32;102037.16;1744171;81;20916;-75
2022/01/08 04:03:18;;;;;;;49.10;22.82;;;;;;;-4.49;73.04;102041.36;1769078;81;21691;-75
2022/01/08 04:05:43;;;;;;;49.80;23.57;;;;;;;-4.55;72.90;102036.50;1727086;83;20886;-75
2022/01/08 04:08:10;;;;;;;41.37;20.05;;;;;;;-4.59;72.74;102043.23;1768994;81;20928;-74
2022/01/08 04:10:37;;;;;;;59.25;28.32;;;;;;;-4.64;72.73;102046.95;1769608;81;20959;-75
2022/01/08 04:13:10;;;;;;;75.87;29.82;;;;;;;-4.65;72.67;102049.46;1726857;83;21481;-75
2022/01/08 04:15:37;;;;;;;60.88;22.82;;;;;;;-4.68;72.81;102051.95;1768692;81;21070;-74
2022/01/08 04:18:01;;;;;;;54.70;23.20;;;;;;;-4.74;72.62;102052.65;1727922;83;20984;-75
2022/01/08 04:20:29;;;;;;;58.02;26.17;;;;;;;-4.80;72.81;102064.03;1768640;80;20983;-75
2022/01/08 04:22:56;;;;;;;49.83;22.50;;;;;;;-4.84;72.85;102057.09;1772888;81;21385;-75
2022/01/08 04:25:23;;;;;;;60.83;23.27;;;;;;;-4.89;72.74;102059.53;1773257;81;20829;-75
2022/01/08 04:27:50;;;;;;;50.55;22.58;;;;;;;-4.91;73.07;102062.46;1772836;80;21548;-75
2022/01/08 04:30:17;;;;;;;45.95;22.25;;;;;;;-4.91;73.04;102066.30;1773112;81;20920;-76
2022/01/08 04:32:45;;;;;;;46.28;22.02;;;;;;;-4.92;73.07;102075.20;1772805;81;20916;-76
2022/01/08 04:35:12;;;;;;;50.67;21.07;;;;;;;-4.92;73.45;102067.52;1772844;79;21449;-74
2022/01/08 04:37:38;;;;;;;45.92;20.32;;;;;;;-4.89;73.48;102070.16;1772824;79;20844;-74
2022/01/08 04:40:06;;;;;;;48.98;20.30;;;;;;;-4.88;73.40;102070.63;1773092;81;21497;-74
2022/01/08 04:42:34;;;;;;;48.90;19.55;;;;;;;-4.88;73.50;102066.78;1772791;79;20864;-73
2022/01/08 04:45:01;;;;;;;42.10;19.62;;;;;;;-4.86;73.64;102063.44;1772770;79;20939;-74
2022/01/08 04:47:28;;;;;;;45.78;19.80;;;;;;;-4.84;73.51;102069.47;1772741;80;20967;-73
2022/01/08 04:49:54;;;;;;;42.43;19.17;;;;;;;-4.85;73.42;102064.30;1772848;81;20880;-74
2022/01/08 04:52:21;;;;;;;37.05;18.45;;;;;;;-4.87;73.39;102068.12;1773011;81;21120;-73
2022/01/08 04:54:48;;;;;;;39.50;18.25;;;;;;;-4.89;73.32;102067.59;1772817;81;20904;-73
2022/01/08 04:57:15;;;;;;;50.85;21.82;;;;;;;-4.91;73.22;102071.80;1773027;79;20869;-75
2022/01/08 04:59:42;;;;;;;63.40;22.75;;;;;;;-4.96;73.14;102075.52;1772714;80;22384;-74
2022/01/08 05:02:09;;;;;;;72.62;26.80;;;;;;;-4.98;73.10;102071.19;1773029;81;21044;-74
2022/01/08 05:04:36;;;;;;;57.43;23.73;;;;;;;-5.02;72.92;102083.05;1772870;80;21569;-74
2022/01/08 05:07:03;;;;;;;52.88;23.57;;;;;;;-5.11;72.65;102079.82;1773008;81;21375;-74
2022/01/08 05:09:31;;;;;;;56.00;24.35;;;;;;;-5.21;72.81;102085.06;1772952;80;20932;-74
2022/01/08 05:11:58;;;;;;;59.18;24.77;;;;;;;-5.26;73.02;102085.77;1773010;81;20927;-74
2022/01/08 05:14:27;;;;;;;57.75;24.50;;;;;;;-5.28;73.11;102088.70;1773150;81;20960;-73
2022/01/08 05:16:59;;;;;;;53.78;21.97;;;;;;;-5.28;73.21;102093.81;1773302;79;21475;-74
2022/01/08 05:19:37;;;;;;;45.10;21.35;;;;;;;-5.29;73.29;102091.67;1772358;80;20876;-76
2022/01/08 05:21:57;;;;;;;57.53;22.82;;;;;;;-5.31;73.21;102104.82;1770664;80;20904;-74
2022/01/08 05:24:20;;;;;;;63.33;25.27;;;;;;;-5.30;73.33;102105.68;1772172;80;21429;-74
2022/01/08 05:26:46;;;;;;;56.23;25.08;;;;;;;-5.32;73.32;102105.63;1772954;81;20864;-73
2022/01/08 05:29:13;;;;;;;52.48;24.45;;;;;;;-5.35;73.28;102105.97;1772800;81;21458;-73
2022/01/08 05:31:40;;;;;;;49.55;25.65;;;;;;;-5.39;73.27;102111.39;1772827;79;20976;-74
2022/01/08 05:34:08;;;;;;;49.23;23.87;;;;;;;-5.42;73.34;102112.59;1772775;80;20963;-75
2022/01/08 05:36:35;;;;;;;42.95;22.20;;;;;;;-5.42;73.61;102112.17;1772771;80;20916;-75
2022/01/08 05:39:02;;;;;;;48.73;22.48;;;;;;;-5.39;73.74;102113.08;1772985;81;20857;-75
2022/01/08 05:41:29;;;;;;;37.65;20.12;;;;;;;-5.39;73.62;102115.64;1772922;79;21146;-74
2022/01/08 05:43:56;;;;;;;47.05;23.02;;;;;;;-5.40;73.61;102112.23;1772682;81;20954;-74
2022/01/08 05:46:23;;;;;;;53.63;22.30;;;;;;;-5.39;73.59;102113.08;1773195;81;20853;-75
2022/01/08 05:48:49;;;;;;;118.65;62.10;;;;;;;-5.38;73.71;102119.92;1773321;81;20975;-76
2022/01/08 05:51:16;;;;;;;106.37;53.80;;;;;;;-5.38;73.70;102130.14;1772847;80;21445;-77
2022/01/08 05:53:43;;;;;;;75.20;36.50;;;;;;;-5.38;73.65;102128.86;1773160;79;21754;-76
2022/01/08 05:56:09;;;;;;;57.43;25.52;;;;;;;-5.40;73.58;102131.39;1772711;79;20963;-75
2022/01/08 05:58:38;;;;;;;50.33;23.73;;;;;;;-5.38;73.53;102132.31;1772902;81;20880;-75
2022/01/08 06:01:05;;;;;;;67.08;26.02;;;;;;;-5.35;73.66;102137.50;1772923;81;20956;-77
2022/01/08 06:03:32;;;;;;;82.85;35.05;;;;;;;-5.35;73.62;102137.50;1751589;81;21410;-75
2022/01/08 06:05:58;;;;;;;91.35;40.30;;;;;;;-5.33;73.64;102136.28;1772811;79;21513;-75
2022/01/08 06:08:26;;;;;;;85.32;41.25;;;;;;;-5.33;73.58;102136.28;1772759;81;20951;-75
2022/01/08 06:10:52;;;;;;;69.55;33.00;;;;;;;-5.33;73.60;102138.42;1772677;81;20885;-75
2022/01/08 06:13:20;;;;;;;69.95;29.52;;;;;;;-5.33;73.87;102138.84;1751472;81;20939;-75
2022/01/08 06:15:48;;;;;;;65.92;31.05;;;;;;;-5.30;73.91;102140.20;1772872;81;21841;-75
2022/01/08 06:18:16;;;;;;;53.42;26.80;;;;;;;-5.27;73.76;102144.11;1772977;81;21100;-75
2022/01/08 06:20:43;;;;;;;62.03;27.02;;;;;;;-5.23;73.77;102141.69;1772698;81;20872;-75
2022/01/08 06:23:10;;;;;;;51.13;23.83;;;;;;;-5.19;73.72;102129.87;1768806;80;20980;-76
2022/01/08 06:25:38;;;;;;;53.42;23.18;;;;;;;-5.15;73.87;102132.12;1768260;81;20853;-76
2022/01/08 06:28:05;;;;;;;54.10;26.60;;;;;;;-5.13;74.01;102139.00;1768345;81;20908;-76
2022/01/08 06:30:33;;;;;;;57.43;27.17;;;;;;;-5.09;74.19;102131.87;1768429;81;21453;-77
2022/01/08 06:33:00;;;;;;;51.15;25.62;;;;;;;-5.02;74.30;102138.90;1768371;81;20920;-75
2022/01/08 06:35:27;;;;;;;51.13;20.65;;;;;;;-4.95;74.12;102132.27;1768411;81;20860;-75
2022/01/08 06:37:54;;;;;;;55.35;26.97;;;;;;;-4.88;73.96;102139.70;1768376;81;20892;-75
2022/01/08 06:40:20;;;;;;;68.92;34.18;;;;;;;-4.86;74.01;102140.19;1768308;81;20983;-74
2022/01/08 06:42:47;;;;;;;75.78;35.83;;;;;;;-4.78;74.17;102144.23;1726693;83;21431;-75
2022/01/08 06:45:14;;;;;;;65.83;34.92;;;;;;;-4.69;74.12;102143.61;1768430;80;21342;-73
2022/01/08 06:47:45;;;;;;;43.08;21.07;;;;;;;-4.60;73.96;102137.07;1768317;81;20915;-74
2022/01/08 06:50:10;;;;;;;84.30;40.05;;;;;;;-4.51;73.90;102140.68;1726409;82;20999;-75
2022/01/08 06:52:38;;;;;;;105.07;50.52;;;;;;;-4.42;73.84;102148.63;1768257;81;20983;-75
2022/01/08 06:55:07;;;;;;;114.40;59.42;;;;;;;-4.33;73.97;102153.13;1768393;81;21127;-76
2022/01/08 06:57:34;;;;;;;122.53;56.08;;;;;;;-4.26;74.10;102157.16;1768270;81;20915;-77
2022/01/08 07:00:02;;;;;;;90.42;45.00;;;;;;;-4.20;74.14;102156.45;1768255;81;20928;-77
2022/01/08 07:02:29;;;;;;;89.28;41.05;;;;;;;-4.12;74.33;102161.34;1726654;83;20909;-76
2022/01/08 07:04:57;;;;;;;93.62;44.75;;;;;;;-4.01;74.68;102161.19;1768511;81;20897;-75
2022/01/08 07:07:25;;;;;;;75.03;33.50;;;;;;;-3.84;74.84;102162.90;1768252;81;22109;-77
2022/01/08 07:09:52;;;;;;;53.35;24.07;;;;;;;-3.71;74.59;102161.50;1768027;81;21390;-75
2022/01/08 07:12:20;;;;;;;35.95;16.55;;;;;;;-3.61;74.29;102163.43;1728005;83;20909;-76
2022/01/08 07:14:48;;;;;;;29.35;14.03;;;;;;;-3.52;73.86;102164.06;1768561;80;20967;-77
2022/01/08 07:17:14;;;;;;;39.78;19.45;;;;;;;-3.45;73.11;102164.64;1768461;81;20959;-74
2022/01/08 07:19:42;;;;;;;20.40;9.80;;;;;;;-3.38;72.76;102163.97;1768408;80;21100;-74
2022/01/08 07:22:09;;;;;;;16.73;9.03;;;;;;;-3.28;71.98;102162.47;1769844;80;20947;-74
2022/01/08 07:24:35;;;;;;;16.42;9.48;;;;;;;-3.20;71.12;102162.62;1772763;81;20848;-73
2022/01/08 07:27:03;;;;;;;15.70;8.88;;;;;;;-3.13;70.64;102161.52;1772670;81;20960;-74
2022/01/08 07:29:29;;;;;;;15.88;9.13;;;;;;;-3.04;69.49;102158.28;1772795;79;20931;-74
2022/01/08 07:31:56;;;;;;;18.75;8.20;;;;;;;-2.97;68.90;102160.13;1772578;81;21116;-76
2022/01/08 07:36:57;;;;;;;15.65;8.60;;;;;;;-2.79;68.02;102159.64;1798554;79;22614;-75
2022/01/08 07:39:24;;;;;;;14.40;9.00;;;;;;;-2.77;67.79;102163.10;1758646;80;21331;-74
2022/01/08 07:41:51;;;;;;;16.00;7.28;;;;;;;-2.71;67.60;102163.66;1724905;83;21827;-75
2022/01/08 07:44:20;;;;;;;14.23;7.20;;;;;;;-2.62;67.28;102165.11;1724685;83;20994;-74
2022/01/08 07:46:47;;;;;;;11.35;6.97;;;;;;;-2.52;67.19;102165.72;1725045;83;20888;-76
2022/01/08 07:49:14;;;;;;;13.65;7.50;;;;;;;-2.44;66.49;102171.44;1724671;82;21477;-75
2022/01/08 07:51:51;;;;;;;13.08;7.80;;;;;;;-2.38;66.33;102168.56;1724922;83;20904;-74
2022/01/08 07:54:12;;;;;;;13.22;7.85;;;;;;;-2.32;66.10;102168.66;1694081;83;21373;-75
2022/01/08 07:56:39;;;;;;;17.10;9.18;;;;;;;-2.24;65.80;102174.38;1724861;82;20852;-73
2022/01/08 07:59:06;;;;;;;13.03;6.30;;;;;;;-2.17;65.24;102171.07;1724861;83;21493;-73
2022/01/08 08:01:33;;;;;;;12.23;6.58;;;;;;;-2.12;65.11;102172.86;1725151;83;21010;-74
2022/01/08 08:04:00;;;;;;;12.13;7.20;;;;;;;-2.06;64.65;102169.55;1725307;83;21505;-73
2022/01/08 08:06:28;;;;;;;11.28;6.50;;;;;;;-2.03;64.16;102170.02;1725306;83;21013;-72
2022/01/08 08:08:55;;;;;;;15.23;7.60;;;;;;;-1.99;64.02;102167.52;1724832;81;20991;-73
2022/01/08 08:11:23;;;;;;;15.83;7.85;;;;;;;-1.97;63.87;102164.98;1724754;83;20931;-72
2022/01/08 08:13:49;;;;;;;13.68;7.72;;;;;;;-1.93;63.84;102158.63;1724707;83;20888;-75
2022/01/08 08:16:20;;;;;;;13.28;7.55;;;;;;;-1.89;63.55;102153.98;1724945;82;20876;-83
2022/01/08 08:18:46;;;;;;;12.50;6.87;;;;;;;-1.88;63.52;102154.84;1724985;82;21110;-82
2022/01/08 08:21:13;;;;;;;18.32;9.58;;;;;;;-1.83;63.55;102152.34;1725136;81;20930;-81
2022/01/08 08:23:40;;;;;;;12.00;7.42;;;;;;;-1.76;63.79;102149.02;1724801;83;21449;-82
2022/01/08 08:26:07;;;;;;;15.53;7.47;;;;;;;-1.72;63.68;102147.81;1725062;83;20943;-84
2022/01/08 08:28:34;;;;;;;14.70;7.08;;;;;;;-1.69;63.19;102135.02;1724902;81;21440;-83
2022/01/08 08:31:01;;;;;;;14.43;7.72;;;;;;;-1.63;63.07;102143.22;1724907;83;21333;-83
2022/01/08 08:33:28;;;;;;;12.40;6.78;;;;;;;-1.57;63.08;102143.75;1724841;83;20943;-77
2022/01/08 08:35:55;;;;;;;27.85;14.40;;;;;;;-1.52;62.88;102132.67;1717869;83;20928;-81
2022/01/08 08:38:23;;;;;;;13.85;7.45;;;;;;;-1.49;62.64;102136.98;1746219;81;20956;-84
2022/01/08 08:40:51;;;;;;;13.58;6.65;;;;;;;-1.46;62.88;102131.91;1747517;80;20889;-83
2022/01/08 08:43:19;;;;;;;12.13;7.25;;;;;;;-1.42;62.50;102136.26;1745374;82;21200;-82
2022/01/08 08:45:46;;;;;;;10.90;5.47;;;;;;;-1.37;62.51;102128.59;1709475;82;20888;-79
2022/01/08 08:48:13;;;;;;;13.90;6.58;;;;;;;-1.33;61.95;102123.94;1708828;84;20959;-77
2022/01/08 08:50:41;;;;;;;16.45;9.25;;;;;;;-1.33;61.95;102122.66;1708836;84;21026;-82
2022/01/08 08:53:09;;;;;;;17.12;8.68;;;;;;;-1.32;61.74;102110.22;1708943;84;20932;-78
2022/01/08 08:55:35;;;;;;;11.25;6.70;;;;;;;-1.30;61.81;102108.53;1708689;84;21544;-81
2022/01/08 08:58:02;;;;;;;9.68;4.67;;;;;;;-1.27;61.78;102103.41;1709005;82;21465;-81
2022/01/08 09:00:29;;;;;;;8.28;3.98;;;;;;;-1.25;61.28;102103.87;1708479;82;20951;-80
2022/01/08 09:02:56;;;;;;;8.18;4.08;;;;;;;-1.22;60.79;102098.32;1709167;84;20857;-80
2022/01/08 09:05:23;;;;;;;12.15;5.62;;;;;;;-1.20;60.85;102094.95;1708357;84;21440;-81
2022/01/08 09:07:51;;;;;;;12.23;7.25;;;;;;;-1.15;61.09;102088.14;1708762;84;22001;-80
2022/01/08 09:10:23;;;;;;;8.58;3.62;;;;;;;-1.07;60.96;102089.10;1708705;84;20893;-79
2022/01/08 09:12:46;;;;;;;5.95;2.90;;;;;;;-1.02;60.56;102077.56;1708510;83;21366;-80
2022/01/08 09:15:15;;;;;;;5.47;3.47;;;;;;;-0.99;59.66;102072.44;1708567;84;20960;-81
2022/01/08 09:17:42;;;;;;;8.78;3.20;;;;;;;-0.98;59.01;102072.01;1708970;84;20892;-81
2022/01/08 09:20:09;;;;;;;5.60;3.30;;;;;;;-0.96;58.21;102065.17;1708964;84;21786;-81
2022/01/08 09:22:36;;;;;;;6.80;4.53;;;;;;;-0.95;58.54;102055.33;1708892;82;20912;-78
2022/01/08 09:25:04;;;;;;;5.95;2.98;;;;;;;-0.93;58.15;102049.34;1708862;84;20869;-81
2022/01/08 09:27:31;;;;;;;8.00;3.80;;;;;;;-0.92;58.11;102047.19;1708856;84;21433;-84
2022/01/08 09:29:58;;;;;;;6.03;2.30;;;;;;;-0.90;57.95;102042.07;1708721;82;20857;-80
2022/01/08 09:32:25;;;;;;;3.67;2.42;;;;;;;-0.87;57.25;102039.52;1708410;84;21178;-80
2022/01/08 09:34:52;;;;;;;7.20;3.27;;;;;;;-0.85;57.43;102028.38;1708800;84;20927;-81
2022/01/08 09:37:19;;;;;;;5.78;3.27;;;;;;;-0.85;56.83;102028.80;1708797;83;20857;-79
2022/01/08 09:39:46;;;;;;;7.97;3.55;;;;;;;-0.80;56.59;102024.98;1708615;84;21599;-81
2022/01/08 09:42:13;;;;;;;10.82;4.85;;;;;;;-0.77;56.89;102023.75;1708745;84;20935;-75
2022/01/08 09:44:44;;;;;;;9.45;5.08;;;;;;;-0.71;56.25;102028.93;1708912;84;21154;-74
2022/01/08 09:47:09;;;;;;;5.47;2.92;;;;;;;-0.72;55.42;102013.91;1708592;83;20904;-73
2022/01/08 09:49:36;;;;;;;6.40;2.90;;;;;;;-0.72;54.14;102024.64;1708880;84;21382;-75
2022/01/08 09:52:03;;;;;;;3.12;1.47;;;;;;;-0.72;54.36;102012.62;1708231;84;20963;-74
2022/01/08 09:54:31;;;;;;;1.20;1.07;;;;;;;-0.70;53.52;102007.06;1708476;84;21023;-75
2022/01/08 09:56:58;;;;;;;3.80;1.92;;;;;;;-0.64;53.73;102016.14;1708467;84;21112;-72
2022/01/08 09:59:28;;;;;;;6.47;2.33;;;;;;;-0.56;53.73;102014.05;1708702;84;20893;-72
2022/01/08 10:02:01;;;;;;;8.13;4.08;;;;;;;-0.47;54.00;102005.09;1708455;84;20868;-75
2022/01/08 10:04:36;;;;;;;9.77;5.63;;;;;;;-0.36;53.93;102007.77;1709201;84;20944;-76
2022/01/08 10:07:23;;;;;;;5.80;2.70;;;;;;;-0.29;54.00;102005.27;1710399;84;20928;-76
2022/01/08 10:10:12;;;;;;;5.62;2.77;;;;;;;-0.22;53.56;101998.44;1708767;84;21165;-76
2022/01/08 10:13:01;;;;;;;9.35;3.55;;;;;;;-0.19;53.33;101988.13;1708800;84;20991;-75
2022/01/08 10:18:36;;;;;;;5.03;2.90;;;;;;;-0.06;53.68;101988.64;1708565;84;20952;-76
2022/01/08 10:21:24;;;;;;;4.85;2.55;;;;;;;0.02;53.30;101986.53;1744508;82;20960;-75
2022/01/08 10:23:56;;;;;;;6.80;3.10;;;;;;;0.03;53.46;101979.25;1707987;83;21132;-74
2022/01/08 10:26:31;;;;;;;5.95;3.15;;;;;;;0.10;53.43;101975.84;1708409;84;20888;-74
2022/01/08 10:28:56;;;;;;;5.65;3.20;;;;;;;0.14;53.36;101978.87;1708422;82;20984;-75
2022/01/08 10:31:26;;;;;;;4.45;3.30;;;;;;;0.13;53.14;101977.12;1708477;84;20948;-74
2022/01/08 10:34:04;;;;;;;10.85;4.37;;;;;;;0.11;53.53;101981.02;1708490;84;21441;-75
2022/01/08 10:36:38;;;;;;;6.15;2.92;;;;;;;0.14;53.26;101974.57;1708179;83;22173;-75
2022/01/08 10:39:09;;;;;;;;;;;;;;;0.18;53.11;101972.45;1711007;84;21350;-74
2022/01/08 10:41:42;;;;;;;4.97;3.00;;;;;;;0.24;52.48;101968.16;1694979;84;20098;-75
2022/01/08 10:44:18;;;;;;;4.95;2.85;;;;;;;0.25;52.45;101969.47;1708390;83;20941;-76
2022/01/08 10:47:12;;;;;;;7.75;3.20;;;;;;;0.26;51.98;101968.59;1708816;84;20905;-78
2022/01/08 10:50:03;;;;;;;8.23;2.98;;;;;;;0.29;52.01;101960.00;1708330;83;21132;-74
2022/01/08 10:52:43;;;;;;;7.75;3.50;;;;;;;0.32;51.93;101954.44;1708351;83;21023;-76
2022/01/08 10:55:10;;;;;;;7.60;4.72;;;;;;;0.36;52.19;101961.34;1707677;84;20944;-77
2022/01/08 10:57:43;;;;;;;7.03;4.35;;;;;;;0.44;52.44;101965.66;1708281;84;20988;-76
2022/01/08 11:00:12;;;;;;;7.75;3.20;;;;;;;0.50;52.53;101968.27;1708607;83;20885;-76
2022/01/08 11:02:41;;;;;;;6.85;2.75;;;;;;;0.56;52.47;101967.01;1708813;84;21395;-83
2022/01/08 11:05:08;;;;;;;5.95;3.25;;;;;;;0.60;52.12;101963.55;1708356;83;20949;-83
2022/01/08 11:07:37;;;;;;;8.35;3.90;;;;;;;0.66;52.07;101954.98;1708526;83;21595;-77
2022/01/08 11:10:07;;;;;;;7.03;3.17;;;;;;;0.73;52.12;101947.67;1708389;83;20945;-78
2022/01/08 11:12:41;;;;;;;7.37;3.27;;;;;;;0.79;51.76;101948.55;1708524;83;20956;-78
2022/01/08 11:17:45;;;;;;;10.88;3.40;;;;;;;0.83;50.48;101950.28;1708539;83;20972;-81
2022/01/08 11:20:22;;;;;;;4.83;2.70;;;;;;;0.84;50.54;101947.27;1708445;84;20941;-79
2022/01/08 11:22:51;;;;;;;4.42;2.47;;;;;;;0.87;50.38;101949.87;1708523;84;20960;-79
2022/01/08 11:25:21;;;;;;;11.53;2.58;;;;;;;0.86;50.63;101942.11;1708437;83;20881;-80
2022/01/08 11:28:13;;;;;;;5.00;2.65;;;;;;;0.91;50.35;101939.09;1708225;84;21728;-80
2022/01/08 11:30:54;;;;;;;10.05;3.80;;;;;;;0.96;50.14;101943.86;1708354;83;22096;-80
2022/01/08 11:33:29;;;;;;;3.30;2.15;;;;;;;1.01;50.11;101947.30;1710088;83;20964;-78
2022/01/08 11:35:54;;;;;;;5.78;2.67;;;;;;;1.08;49.78;101934.81;1708403;83;20944;-80
2022/01/08 11:38:23;;;;;;;4.72;2.60;;;;;;;1.13;49.20;101926.62;1708742;83;20940;-78
2022/01/08 11:40:52;;;;;;;8.15;3.22;;;;;;;1.19;49.12;101924.48;1708669;84;21131;-78
2022/01/08 11:43:21;;;;;;;4.95;2.33;;;;;;;1.24;48.71;101923.64;1708397;83;20905;-77